Eviapetrol II — SY6858 — position and weather

sailwx.info

Track history (hours):
 
Tides and Currents Weather Stations Pressure Air Temp Water Temp Dewpoint Dewpoint Depression Visibility Wind Speed Wind Dir Waves Ship Positions

Eviapetrol II

Last reported at 2014-Jul-24 21:33 UTC. Time now 2014-Jul-25 03:39 UTC.
Position N 36°50' E 026°59'.

Length 78 m; draft 4.9 m.

Type: Tanker. MMSI: 240493000.

Date/timePositionNaut miles runAvg speedWind from/ knotsBaromVisibWave heightAir tempDewpointWater temp
2014-Jul-24 21:33N 36°50' E 026°59'10 8.3
2014-Jul-24 20:19N 36°40' E 026°54'55 2.4
2014-Jul-23 21:30N 36°10' E 025°57'9 9.6
2014-Jul-23 20:33N 36°15' E 025°47'1010.0
2014-Jul-23 19:33N 36°21' E 025°37'8 8.1
2014-Jul-23 18:33N 36°25' E 025°29'0 0.1
2014-Jul-23 17:22N 36°25' E 025°29'0 0.0
2014-Jul-23 16:24N 36°25' E 025°29'0 0.0
2014-Jul-23 15:32N 36°25' E 025°29'0 0.0
2014-Jul-23 14:33N 36°25' E 025°29'0 0.0
2014-Jul-23 13:32N 36°25' E 025°29'0 0.0
2014-Jul-23 12:33N 36°25' E 025°29'0 0.0
2014-Jul-23 11:33N 36°25' E 025°29'0 0.0
2014-Jul-23 10:33N 36°25' E 025°29'0 0.0
2014-Jul-23 09:05N 36°25' E 025°29'0 0.0
2014-Jul-23 08:33N 36°25' E 025°29'0 0.0
2014-Jul-23 07:33N 36°25' E 025°29'0 0.0
2014-Jul-23 06:33N 36°25' E 025°29'0 0.0
2014-Jul-23 05:33N 36°25' E 025°29'0 0.0
2014-Jul-23 04:33N 36°25' E 025°29'0 0.1
2014-Jul-23 03:33N 36°25' E 025°29'1 1.3
2014-Jul-23 02:33N 36°25' E 025°31'3 3.0
2014-Jul-23 01:33N 36°27' E 025°28'9 9.2
2014-Jul-23 00:33N 36°34' E 025°20'9 8.8
2014-Jul-22 23:33N 36°42' E 025°14'10 9.7
2014-Jul-22 22:33N 36°48' E 025°05'9 9.2
2014-Jul-22 21:32N 36°54' E 024°57'9 9.0
2014-Jul-22 20:33N 37°01' E 024°49'9 8.9
2014-Jul-22 19:33N 37°07' E 024°41'9 9.2
2014-Jul-22 18:32N 37°13' E 024°32'9 9.4
2014-Jul-22 17:32N 37°18' E 024°21'10 9.8
2014-Jul-22 16:33N 37°23' E 024°11'10 9.9
2014-Jul-22 15:33N 37°29' E 024°01'10 9.9
2014-Jul-22 14:32N 37°35' E 023°51'10 9.7
2014-Jul-22 13:32N 37°41' E 023°42'9 9.5
2014-Jul-22 12:33N 37°49' E 023°37'8 8.3
2014-Jul-22 11:33N 37°57' E 023°33'4 0.4
2014-Jul-21 23:33N 38°02' E 023°32'3 0.7
2014-Jul-21 19:13N 38°02' E 023°36'0 0.0
2014-Jul-21 15:22N 38°02' E 023°36'0 0.0
2014-Jul-21 13:25N 38°02' E 023°36'1 0.6
2014-Jul-21 12:28N 38°02' E 023°35'5 5.0
2014-Jul-21 11:33N 37°57' E 023°34'9 8.8
2014-Jul-21 10:33N 37°50' E 023°40'94 9.9
2014-Jul-21 01:07N 36°24' E 024°26'6 9.8
2014-Jul-21 00:33N 36°19' E 024°29'22 9.5
2014-Jul-20 22:16N 35°59' E 024°41'22 0.8
2014-Jul-19 19:22N 35°39' E 024°53'8 9.7
2014-Jul-19 18:31N 35°46' E 024°47'1010.1
2014-Jul-19 17:33N 35°55' E 024°42'1010.4
2014-Jul-19 16:33N 36°04' E 024°36'1010.4
2014-Jul-19 15:33N 36°13' E 024°29'10 9.7
2014-Jul-19 14:32N 36°22' E 024°23'10 9.6
2014-Jul-19 13:29N 36°30' E 024°17'9 9.4
2014-Jul-19 12:33N 36°38' E 024°11'10 9.2
2014-Jul-19 11:29N 36°46' E 024°05'44 9.0
2014-Jul-19 06:33N 37°24' E 023°38'10 9.5
2014-Jul-19 05:33N 37°33' E 023°31'9 9.4
2014-Jul-19 04:33N 37°39' E 023°23'9 8.6
2014-Jul-19 03:33N 37°45' E 023°15'9 0.5
2014-Jul-18 09:26N 37°53' E 023°09'52 9.9
2014-Jul-18 04:10N 37°24' E 024°04'710.1
2014-Jul-18 03:26N 37°22' E 024°13'1110.1
2014-Jul-18 02:24N 37°16' E 024°24'910.0
2014-Jul-18 01:33N 37°12' E 024°33'10 9.9
2014-Jul-18 00:32N 37°06' E 024°42'1010.4
2014-Jul-17 23:33N 36°59' E 024°52'1010.3
2014-Jul-17 22:33N 36°54' E 025°03'1110.7
2014-Jul-17 21:33N 36°50' E 025°16'1110.7
2014-Jul-17 20:30N 36°47' E 025°29'1010.5
2014-Jul-17 19:33N 36°45' E 025°41'1010.3
2014-Jul-17 18:33N 36°45' E 025°54'1010.2
2014-Jul-17 17:33N 36°46' E 026°07'10 9.9
2014-Jul-17 16:33N 36°47' E 026°20'13 0.5
2014-Jul-16 13:31N 36°37' E 026°09'9 9.6
2014-Jul-16 12:33N 36°34' E 025°59'1010.4
2014-Jul-16 11:33N 36°30' E 025°46'1010.0
2014-Jul-16 10:33N 36°27' E 025°35'5 4.3
2014-Jul-16 09:26N 36°25' E 025°29'0 0.0
2014-Jul-16 08:30N 36°25' E 025°29'0 0.0
2014-Jul-16 07:33N 36°25' E 025°29'0 0.0
2014-Jul-16 06:33N 36°25' E 025°29'0 0.0
2014-Jul-16 05:33N 36°25' E 025°29'0 0.0
2014-Jul-16 04:27N 36°25' E 025°29'0 0.0
2014-Jul-16 03:33N 36°25' E 025°29'0 0.4
2014-Jul-16 02:33N 36°25' E 025°29'0 0.0
2014-Jul-16 00:23N 36°25' E 025°29'0 0.0
2014-Jul-15 23:33N 36°25' E 025°29'0 0.0
2014-Jul-15 22:29N 36°25' E 025°29'0 0.0
2014-Jul-15 21:33N 36°25' E 025°29'0 0.0
2014-Jul-15 20:32N 36°25' E 025°29'0 0.0
2014-Jul-15 19:33N 36°25' E 025°29'0 0.0
2014-Jul-15 18:33N 36°25' E 025°29'0 0.0
2014-Jul-15 17:33N 36°25' E 025°29'0 0.0
2014-Jul-15 16:33N 36°25' E 025°29'0 0.0
2014-Jul-15 15:33N 36°25' E 025°29'0 0.0
2014-Jul-15 14:33N 36°25' E 025°29'0 0.0
2014-Jul-15 13:33N 36°25' E 025°29'0 0.0
2014-Jul-15 12:33N 36°25' E 025°29'0 0.0
2014-Jul-15 11:32N 36°25' E 025°29'0 0.0
2014-Jul-15 10:33N 36°25' E 025°29'0 0.0
2014-Jul-15 09:32N 36°25' E 025°29'0 0.0
2014-Jul-15 08:33N 36°25' E 025°29'0 0.0
2014-Jul-15 07:24N 36°25' E 025°29'0 0.0
2014-Jul-15 06:33N 36°25' E 025°29'0 0.0
2014-Jul-15 05:33N 36°25' E 025°29'0 0.3
2014-Jul-15 04:33N 36°25' E 025°29'0 0.1
2014-Jul-15 03:33N 36°25' E 025°29'0 0.0
2014-Jul-15 02:32N 36°25' E 025°29'0 0.0
2014-Jul-15 01:33N 36°25' E 025°29'0 0.0
2014-Jul-15 00:33N 36°25' E 025°29'0 0.0
2014-Jul-14 23:33N 36°25' E 025°29'0 0.0
2014-Jul-14 22:33N 36°25' E 025°29'  
Track history (hours):
 
Tides and Currents Weather Stations Pressure Air Temp Water Temp Dewpoint Dewpoint Depression Visibility Wind Speed Wind Dir Waves Ship Positions

Eviapetrol II

Last reported at 2014-Jul-24 21:33 UTC. Time now 2014-Jul-25 03:39 UTC.
Position N 36°50' E 026°59'.

Length 78 m; draft 4.9 m.

Type: Tanker. MMSI: 240493000.

Date/timePositionNaut miles runAvg speedWind from/ knotsBaromVisibWave heightAir tempDewpointWater temp
2014-Jul-24 21:33N 36°50' E 026°59'10 8.3
2014-Jul-24 20:19N 36°40' E 026°54'55 2.4
2014-Jul-23 21:30N 36°10' E 025°57'9 9.6
2014-Jul-23 20:33N 36°15' E 025°47'1010.0
2014-Jul-23 19:33N 36°21' E 025°37'8 8.1
2014-Jul-23 18:33N 36°25' E 025°29'0 0.1
2014-Jul-23 17:22N 36°25' E 025°29'0 0.0
2014-Jul-23 16:24N 36°25' E 025°29'0 0.0
2014-Jul-23 15:32N 36°25' E 025°29'0 0.0
2014-Jul-23 14:33N 36°25' E 025°29'0 0.0
2014-Jul-23 13:32N 36°25' E 025°29'0 0.0
2014-Jul-23 12:33N 36°25' E 025°29'0 0.0
2014-Jul-23 11:33N 36°25' E 025°29'0 0.0
2014-Jul-23 10:33N 36°25' E 025°29'0 0.0
2014-Jul-23 09:05N 36°25' E 025°29'0 0.0
2014-Jul-23 08:33N 36°25' E 025°29'0 0.0
2014-Jul-23 07:33N 36°25' E 025°29'0 0.0
2014-Jul-23 06:33N 36°25' E 025°29'0 0.0
2014-Jul-23 05:33N 36°25' E 025°29'0 0.0
2014-Jul-23 04:33N 36°25' E 025°29'0 0.1
2014-Jul-23 03:33N 36°25' E 025°29'1 1.3
2014-Jul-23 02:33N 36°25' E 025°31'3 3.0
2014-Jul-23 01:33N 36°27' E 025°28'9 9.2
2014-Jul-23 00:33N 36°34' E 025°20'9 8.8
2014-Jul-22 23:33N 36°42' E 025°14'10 9.7
2014-Jul-22 22:33N 36°48' E 025°05'9 9.2
2014-Jul-22 21:32N 36°54' E 024°57'9 9.0
2014-Jul-22 20:33N 37°01' E 024°49'9 8.9
2014-Jul-22 19:33N 37°07' E 024°41'9 9.2
2014-Jul-22 18:32N 37°13' E 024°32'9 9.4
2014-Jul-22 17:32N 37°18' E 024°21'10 9.8
2014-Jul-22 16:33N 37°23' E 024°11'10 9.9
2014-Jul-22 15:33N 37°29' E 024°01'10 9.9
2014-Jul-22 14:32N 37°35' E 023°51'10 9.7
2014-Jul-22 13:32N 37°41' E 023°42'9 9.5
2014-Jul-22 12:33N 37°49' E 023°37'8 8.3
2014-Jul-22 11:33N 37°57' E 023°33'4 0.4
2014-Jul-21 23:33N 38°02' E 023°32'3 0.7
2014-Jul-21 19:13N 38°02' E 023°36'0 0.0
2014-Jul-21 15:22N 38°02' E 023°36'0 0.0
2014-Jul-21 13:25N 38°02' E 023°36'1 0.6
2014-Jul-21 12:28N 38°02' E 023°35'5 5.0
2014-Jul-21 11:33N 37°57' E 023°34'9 8.8
2014-Jul-21 10:33N 37°50' E 023°40'94 9.9
2014-Jul-21 01:07N 36°24' E 024°26'6 9.8
2014-Jul-21 00:33N 36°19' E 024°29'22 9.5
2014-Jul-20 22:16N 35°59' E 024°41'22 0.8
2014-Jul-19 19:22N 35°39' E 024°53'8 9.7
2014-Jul-19 18:31N 35°46' E 024°47'1010.1
2014-Jul-19 17:33N 35°55' E 024°42'1010.4
2014-Jul-19 16:33N 36°04' E 024°36'1010.4
2014-Jul-19 15:33N 36°13' E 024°29'10 9.7
2014-Jul-19 14:32N 36°22' E 024°23'10 9.6
2014-Jul-19 13:29N 36°30' E 024°17'9 9.4
2014-Jul-19 12:33N 36°38' E 024°11'10 9.2
2014-Jul-19 11:29N 36°46' E 024°05'44 9.0
2014-Jul-19 06:33N 37°24' E 023°38'10 9.5
2014-Jul-19 05:33N 37°33' E 023°31'9 9.4
2014-Jul-19 04:33N 37°39' E 023°23'9 8.6
2014-Jul-19 03:33N 37°45' E 023°15'9 0.5
2014-Jul-18 09:26N 37°53' E 023°09'52 9.9
2014-Jul-18 04:10N 37°24' E 024°04'710.1
2014-Jul-18 03:26N 37°22' E 024°13'1110.1
2014-Jul-18 02:24N 37°16' E 024°24'910.0
2014-Jul-18 01:33N 37°12' E 024°33'10 9.9
2014-Jul-18 00:32N 37°06' E 024°42'1010.4
2014-Jul-17 23:33N 36°59' E 024°52'1010.3
2014-Jul-17 22:33N 36°54' E 025°03'1110.7
2014-Jul-17 21:33N 36°50' E 025°16'1110.7
2014-Jul-17 20:30N 36°47' E 025°29'1010.5
2014-Jul-17 19:33N 36°45' E 025°41'1010.3
2014-Jul-17 18:33N 36°45' E 025°54'1010.2
2014-Jul-17 17:33N 36°46' E 026°07'10 9.9
2014-Jul-17 16:33N 36°47' E 026°20'13 0.5
2014-Jul-16 13:31N 36°37' E 026°09'9 9.6
2014-Jul-16 12:33N 36°34' E 025°59'1010.4
2014-Jul-16 11:33N 36°30' E 025°46'1010.0
2014-Jul-16 10:33N 36°27' E 025°35'5 4.3
2014-Jul-16 09:26N 36°25' E 025°29'0 0.0
2014-Jul-16 08:30N 36°25' E 025°29'0 0.0
2014-Jul-16 07:33N 36°25' E 025°29'0 0.0
2014-Jul-16 06:33N 36°25' E 025°29'0 0.0
2014-Jul-16 05:33N 36°25' E 025°29'0 0.0
2014-Jul-16 04:27N 36°25' E 025°29'0 0.0
2014-Jul-16 03:33N 36°25' E 025°29'0 0.4
2014-Jul-16 02:33N 36°25' E 025°29'0 0.0
2014-Jul-16 00:23N 36°25' E 025°29'0 0.0
2014-Jul-15 23:33N 36°25' E 025°29'0 0.0
2014-Jul-15 22:29N 36°25' E 025°29'0 0.0
2014-Jul-15 21:33N 36°25' E 025°29'0 0.0
2014-Jul-15 20:32N 36°25' E 025°29'0 0.0
2014-Jul-15 19:33N 36°25' E 025°29'0 0.0
2014-Jul-15 18:33N 36°25' E 025°29'0 0.0
2014-Jul-15 17:33N 36°25' E 025°29'0 0.0
2014-Jul-15 16:33N 36°25' E 025°29'0 0.0
2014-Jul-15 15:33N 36°25' E 025°29'0 0.0
2014-Jul-15 14:33N 36°25' E 025°29'0 0.0
2014-Jul-15 13:33N 36°25' E 025°29'0 0.0
2014-Jul-15 12:33N 36°25' E 025°29'0 0.0
2014-Jul-15 11:32N 36°25' E 025°29'0 0.0
2014-Jul-15 10:33N 36°25' E 025°29'0 0.0
2014-Jul-15 09:32N 36°25' E 025°29'0 0.0
2014-Jul-15 08:33N 36°25' E 025°29'0 0.0
2014-Jul-15 07:24N 36°25' E 025°29'0 0.0
2014-Jul-15 06:33N 36°25' E 025°29'0 0.0
2014-Jul-15 05:33N 36°25' E 025°29'0 0.3
2014-Jul-15 04:33N 36°25' E 025°29'0 0.1
2014-Jul-15 03:33N 36°25' E 025°29'0 0.0
2014-Jul-15 02:32N 36°25' E 025°29'0 0.0
2014-Jul-15 01:33N 36°25' E 025°29'0 0.0
2014-Jul-15 00:33N 36°25' E 025°29'0 0.0
2014-Jul-14 23:33N 36°25' E 025°29'0 0.0
2014-Jul-14 22:33N 36°25' E 025°29'  

Dump ship's entire track history